Main page
METAR-TAF:

METAR-TAF

Airports :

Paganella, Italy

latitude: 46-09N, longitude: 011-02E, elevation: 2125 m

Current weather observation

The report was made 1 hour and 18 minutes ago, at 20:55 UTC
Wind 21 kt from the North/Northwest with gusts up to 31 kt
Temperature 4°C
Humidity 100%
Pressure 1022 hPa
Visibility less than 50 m
light rain, fog

METAR: LIVP 192055Z 34021G31KT 0000 -RA FG VV/// 04/04 Q1022 RMK MON INVIS VAL INVIS VIS MIN 0000

Time: 00:13 (22:13 UTC)


TAF: missing

Weather observations and forecasts of more than 4000 airports (METAR and TAF reports).

The available stations are represented by yellow and red dots on the map.

Hover mouse over dot to see the name of the station.

Then click to see weather observations and forecasts.

To change the map : click on the green buttons with a black cross to zoom in, on the green button with a dash to zoom out, or on the green arrows for adjacent maps.


METAR-TAF: